Flight Track Log - Related Links

Times and Time Zones

All times are in EDT time to prevent confusion due to time zone crossing. See the SWA1586 flight status page for this flight to view local times or setup timezone preferences in your user account.

Time Position Orientation Groundspeed Altitude Reporting Facility
EDT Latitude Longitude Course Direction KTS MPH feet Rate Location/Type
Sun 09:57:41 PM 40.8081 -111.9647 North 181 208 5,200  Level Salt Lake Center
Sun 09:58:02 PM 40.8211 -111.9639 North 163 188 5,600 1,829 Climbing Salt Lake Center
Sun 09:59:03 PM 40.8822 -111.9742 353° North 229 264 7,700 2,732 Climbing Salt Lake Center
Sun 10:00:05 PM 40.9569 -111.9714 North 272 313 11,200 3,073 Climbing Salt Lake Center
Sun 10:01:06 PM 40.9758 -111.8706 76° East 323 372 14,000 2,585 Climbing Salt Lake Center
Sun 10:02:08 PM 40.9411 -111.7153 106° East 391 450 16,500 2,732 Climbing Salt Lake Center
Sun 10:03:09 PM 40.9206 -111.5661 100° East 416 479 19,600 2,951 Climbing Salt Lake Center
Sun 10:04:10 PM 40.9108 -111.4100 95° East 429 494 22,500 2,683 Climbing Salt Lake Center
Sun 10:05:12 PM 40.8919 -111.2503 99° East 440 506 25,100 2,244 Climbing Salt Lake Center
Sun 10:06:13 PM 40.8719 -111.0861 99° East 452 520 27,100 1,820 Climbing Salt Lake Center
Sun 10:07:14 PM 40.8517 -110.9142 99° East 472 543 28,800 1,561 Climbing Salt Lake Center
Sun 10:08:16 PM 40.8297 -110.7367 99° East 489 563 30,300 1,756 Climbing Salt Lake Center
Sun 10:09:17 PM 40.8022 -110.5211 99° East 503 579 32,400 2,066 Climbing Salt Lake Center
Sun 10:10:18 PM 40.7819 -110.3489 99° East 500 575 34,500 2,146 Climbing Salt Lake Center
Sun 10:11:20 PM 40.7572 -110.1614 100° East 479 551 36,800 1,805 Climbing Salt Lake Center
Sun 10:12:21 PM 40.7381 -109.9972 99° East 474 545 38,200 934 Climbing Salt Lake Center
Sun 10:13:22 PM 40.7272 -109.8311 95° East 474 545 38,700 390 Climbing Salt Lake Center
Sun 10:14:24 PM 40.7139 -109.6333 95° East 486 559 39,000 146 Climbing Salt Lake Center
Sun 10:15:25 PM 40.6997 -109.4658 96° East 483 556 39,000  Level Salt Lake Center
Sun 10:16:26 PM 40.6858 -109.2689 95° East 482 555 39,000  Level Salt Lake Center
Sun 10:17:27 PM 40.6731 -109.1025 96° East 483 556 39,000  Level Salt Lake Center
Sun 10:18:29 PM 40.6597 -108.9353 96° East 483 556 39,000  Level Salt Lake Center
Sun 10:19:16 PM 40.6492 -108.7883 95° East 481 554 39,000  Level Denver Center
Sun 10:20:18 PM 40.6325 -108.5906 96° East 483 556 39,000  Level Denver Center
Sun 10:21:19 PM 40.6189 -108.4217 96° East 483 556 39,000  Level Denver Center
Sun 10:22:21 PM 40.6042 -108.2517 96° East 486 559 39,000  Level Denver Center
Sun 10:23:23 PM 40.5878 -108.0533 96° East 487 560 39,000  Level Denver Center
Sun 10:24:24 PM 40.5725 -107.8864 97° East 483 556 39,000  Level Denver Center
Sun 10:25:26 PM 40.5553 -107.6900 97° East 484 557 39,000  Level Denver Center
Sun 10:26:28 PM 40.5403 -107.5217 97° East 484 557 39,000  Level Denver Center
Sun 10:27:29 PM 40.5247 -107.3547 97° East 481 554 39,000  Level Denver Center
Sun 10:28:31 PM 40.5117 -107.1586 95° East 482 555 39,000  Level Denver Center
Sun 10:29:33 PM 40.5039 -106.9822 93° East 483 556 39,000  Level Denver Center
Sun 10:30:34 PM 40.4936 -106.8069 94° East 480 552 39,000 -1,024 Level Denver Center
Sun 10:31:36 PM 40.4831 -106.6331 95° East 477 549 36,900 -2,634 Descending Denver Center
Sun 10:32:37 PM 40.4719 -106.4372 94° East 474 545 33,600 -2,976 Descending Denver Center
Sun 10:33:39 PM 40.4617 -106.2669 94° East 485 558 30,800 -2,419 Descending Denver Center
Sun 10:34:41 PM 40.4517 -106.0992 94° East 480 552 28,600 -2,585 Descending Denver Center
Sun 10:35:42 PM 40.4364 -105.9297 97° East 467 537 25,500 -2,852 Descending Denver Center
Sun 10:36:43 PM 40.4078 -105.7614 103° East 469 540 22,800 -2,732 Descending Denver Center
Sun 10:37:45 PM 40.3833 -105.5992 101° East 452 520 19,900 -2,878 Descending Denver Center
Sun 10:38:46 PM 40.3508 -105.4228 104° East 441 507 16,900 -2,098 Descending Denver Center
Sun 10:39:48 PM 40.2828 -105.3203 131° Southeast 362 417 15,600 -1,171 Descending Denver Center
Sun 10:40:49 PM 40.2253 -105.2311 130° Southeast 319 367 14,500 -1,268 Descending Denver Center
Sun 10:41:51 PM 40.1492 -105.1761 151° Southeast 308 354 13,000 -732 Descending Denver Center
Sun 10:42:52 PM 40.0733 -105.1728 178° South 277 319 13,000 -537 Level Denver Center
Sun 10:43:54 PM 40.0092 -105.1297 153° Southeast 267 307 11,900 -1,415 Descending Denver Center
Sun 10:44:55 PM 39.9456 -105.0717 145° Southeast 262 302 10,100 -1,610 Descending Denver Center
Sun 10:45:57 PM 39.9097 -104.9869 119° Southeast 265 305 8,600 -1,024 Descending Denver Center
Sun 10:46:58 PM 39.8761 -104.9117 120° Southeast 238 274 8,000 -780 Descending Denver Center
Sun 10:48:00 PM 39.8422 -104.8369 121° Southeast 222 255 7,000 -927 Descending Denver Center
Sun 10:49:01 PM 39.8411 -104.7753 91° East 171 197 6,100 -836 Descending Denver Center
Sun 10:50:02 PM 39.8411 -104.7194 90° East 147 169 5,300 -787 Descending Denver Center
Sun 10:51:00 PM 39.8500 -104.6667 North  Level FlightAware Approximate
Sun 10:58:00 PM 39.8617 -104.6732 North  Level Estimated
Sun 10:59:00 PM 39.8617 -104.6732 North  Level Estimated
Sun 11:00:00 PM 39.8617 -104.6732 North  Level Estimated

Login

Don't have an account? Register now (free) for customized features, flight alerts, and more!